Plessisville, Canada
Current Conditions -  °F | °C
As of 1:00 AM on Wednesday 28 Jan 2015 (Local Time) from CYQB Reporting Station
Snow Showers Snow Showers  
Wind Chill: -18°   Ceiling: 900
Heat Index: -13°   Visibility: 1mi
Dew Point: -15°   Wind: 5mph
Humidity: 85%   Direction: 270°W
Pressure: 29.96"   Gusts: NA
Location:  46.22°N, 71.77°W
Report Text: CYQB 280600Z 27004KT 1SM R06/P6000FT/U -SHSN VV009 M13/M15 A2996 RMK SN8 /S01/ SLP150
Loading
Personal Weather Stations






























Interactive Weather Map New forecast layout! Learn more

10-Day Weather Forecast

Advertisements
Track Severe Weather on mobile